Decoded Metar for PFWS ( in ) (IATA:) | Meteo·Mobile Aviation Weather
aviador You're here:

PFWS Decoded Metar

in
Report Time2018-08-14 10:32:00
UTC Time2018-08-14 11:01:26
Flight Rules mvfr MVFR
Wind250° at 22 Gusting to 29 kt
W.Decomp.*RWY 23: 20.7 kt HW 7.5 kt RCW
RWY 22: 19.1 kt HW 11.0 kt RCW
RWY 30: 14.1 kt HW 16.9 kt LCW
RWY 31: 11.0 kt HW 19.1 kt LCW
W.Rank250° ranks 16
Current wind is above 250° avg. (9.7)
Visibility9999 m
Phenomena:Light Rain
Clouds:Overcast 010 Hf
Expected CloudBase > 400 ft AGL from Temp-Dew spread
Ceiling1,000 ft
Temp11°C
Dew Point10°C (94% RH)
AAT3.1°C
QNH1010 hPa
Raw Report
PFWS 141032Z AUTO 25022G29KT 7SM -RA OVC010 11/10 A2984 RMK AO2 PK
WND 26033/1007 CIG 007V012 P0001=

Extra information for PFWS:More info

Social comments